sensor_id;sensor_type;location;lat;lon;timestamp;P1;durP1;ratioP1;P2;durP2;ratioP2
74363;SDS011;62797;49.740;10.154;2023-03-29T00:00:21;11.50;;;6.40;;
74363;SDS011;62797;49.740;10.154;2023-03-29T00:02:47;15.60;;;6.55;;
74363;SDS011;62797;49.740;10.154;2023-03-29T00:07:41;12.93;;;5.83;;
74363;SDS011;62797;49.740;10.154;2023-03-29T00:10:07;8.35;;;4.63;;
74363;SDS011;62797;49.740;10.154;2023-03-29T00:12:35;11.70;;;5.32;;
74363;SDS011;62797;49.740;10.154;2023-03-29T00:15:02;7.90;;;5.13;;
74363;SDS011;62797;49.740;10.154;2023-03-29T00:19:54;12.73;;;5.50;;
74363;SDS011;62797;49.740;10.154;2023-03-29T00:22:20;12.48;;;5.40;;
74363;SDS011;62797;49.740;10.154;2023-03-29T00:24:46;8.53;;;5.67;;
74363;SDS011;62797;49.740;10.154;2023-03-29T00:27:14;11.27;;;5.88;;
74363;SDS011;62797;49.740;10.154;2023-03-29T00:29:40;13.73;;;6.45;;
74363;SDS011;62797;49.740;10.154;2023-03-29T00:32:06;11.27;;;6.15;;
74363;SDS011;62797;49.740;10.154;2023-03-29T00:34:32;12.30;;;7.13;;
74363;SDS011;62797;49.740;10.154;2023-03-29T00:37:00;12.55;;;7.28;;
74363;SDS011;62797;49.740;10.154;2023-03-29T00:39:26;15.48;;;6.20;;
74363;SDS011;62797;49.740;10.154;2023-03-29T00:41:54;16.23;;;6.15;;
74363;SDS011;62797;49.740;10.154;2023-03-29T00:47:16;13.57;;;6.43;;
74363;SDS011;62797;49.740;10.154;2023-03-29T00:49:45;25.58;;;9.20;;
74363;SDS011;62797;49.740;10.154;2023-03-29T00:52:12;11.65;;;6.18;;
74363;SDS011;62797;49.740;10.154;2023-03-29T00:54:42;15.52;;;7.57;;
74363;SDS011;62797;49.740;10.154;2023-03-29T00:57:10;13.27;;;6.90;;
74363;SDS011;62797;49.740;10.154;2023-03-29T00:59:37;11.90;;;6.53;;
74363;SDS011;62797;49.740;10.154;2023-03-29T01:02:06;15.40;;;8.07;;
74363;SDS011;62797;49.740;10.154;2023-03-29T01:07:19;10.05;;;6.60;;
74363;SDS011;62797;49.740;10.154;2023-03-29T01:09:53;12.88;;;6.47;;
74363;SDS011;62797;49.740;10.154;2023-03-29T01:12:25;7.95;;;4.90;;
74363;SDS011;62797;49.740;10.154;2023-03-29T01:15:08;7.63;;;4.10;;
74363;SDS011;62797;49.740;10.154;2023-03-29T01:17:41;5.80;;;3.42;;
74363;SDS011;62797;49.740;10.154;2023-03-29T01:23:47;7.00;;;3.95;;
74363;SDS011;62797;49.740;10.154;2023-03-29T01:31:34;9.70;;;4.00;;
74363;SDS011;62797;49.740;10.154;2023-03-29T01:34:08;9.63;;;5.18;;
74363;SDS011;62797;49.740;10.154;2023-03-29T01:36:43;8.70;;;4.75;;
74363;SDS011;62797;49.740;10.154;2023-03-29T01:39:14;10.85;;;5.35;;
74363;SDS011;62797;49.740;10.154;2023-03-29T01:45:19;9.38;;;5.72;;
74363;SDS011;62797;49.740;10.154;2023-03-29T01:47:42;8.85;;;5.03;;
74363;SDS011;62797;49.740;10.154;2023-03-29T01:50:15;14.00;;;5.88;;
74363;SDS011;62797;49.740;10.154;2023-03-29T01:55:41;14.05;;;4.97;;
74363;SDS011;62797;49.740;10.154;2023-03-29T01:58:12;10.55;;;4.55;;
74363;SDS011;62797;49.740;10.154;2023-03-29T02:00:41;8.30;;;5.63;;
74363;SDS011;62797;49.740;10.154;2023-03-29T02:03:08;8.57;;;4.20;;
74363;SDS011;62797;49.740;10.154;2023-03-29T02:08:01;7.07;;;4.20;;
74363;SDS011;62797;49.740;10.154;2023-03-29T02:10:30;6.30;;;3.95;;
74363;SDS011;62797;49.740;10.154;2023-03-29T02:12:57;8.88;;;4.43;;
74363;SDS011;62797;49.740;10.154;2023-03-29T02:15:23;8.48;;;3.88;;
74363;SDS011;62797;49.740;10.154;2023-03-29T02:17:49;6.47;;;4.13;;
74363;SDS011;62797;49.740;10.154;2023-03-29T02:20:37;7.20;;;5.15;;
74363;SDS011;62797;49.740;10.154;2023-03-29T02:25:51;8.43;;;3.70;;
74363;SDS011;62797;49.740;10.154;2023-03-29T02:28:20;6.50;;;3.35;;
74363;SDS011;62797;49.740;10.154;2023-03-29T02:30:52;6.25;;;3.30;;
74363;SDS011;62797;49.740;10.154;2023-03-29T02:39:00;4.68;;;2.60;;
74363;SDS011;62797;49.740;10.154;2023-03-29T02:41:30;6.65;;;2.58;;
74363;SDS011;62797;49.740;10.154;2023-03-29T02:43:57;9.23;;;2.30;;
74363;SDS011;62797;49.740;10.154;2023-03-29T02:46:31;6.30;;;2.95;;
74363;SDS011;62797;49.740;10.154;2023-03-29T02:48:56;3.22;;;2.30;;
74363;SDS011;62797;49.740;10.154;2023-03-29T02:51:24;3.22;;;2.50;;
74363;SDS011;62797;49.740;10.154;2023-03-29T02:53:58;2.92;;;2.30;;
74363;SDS011;62797;49.740;10.154;2023-03-29T02:56:29;3.75;;;2.35;;
74363;SDS011;62797;49.740;10.154;2023-03-29T02:58:55;3.60;;;2.63;;
74363;SDS011;62797;49.740;10.154;2023-03-29T03:01:21;3.00;;;2.67;;
74363;SDS011;62797;49.740;10.154;2023-03-29T03:03:48;4.57;;;2.65;;
74363;SDS011;62797;49.740;10.154;2023-03-29T03:06:14;4.10;;;2.42;;
74363;SDS011;62797;49.740;10.154;2023-03-29T03:08:40;5.10;;;3.33;;
74363;SDS011;62797;49.740;10.154;2023-03-29T03:11:06;5.97;;;3.00;;
74363;SDS011;62797;49.740;10.154;2023-03-29T03:13:32;4.13;;;2.65;;
74363;SDS011;62797;49.740;10.154;2023-03-29T03:15:58;6.20;;;3.13;;
74363;SDS011;62797;49.740;10.154;2023-03-29T03:18:25;3.83;;;2.40;;
74363;SDS011;62797;49.740;10.154;2023-03-29T03:23:21;6.93;;;2.78;;
74363;SDS011;62797;49.740;10.154;2023-03-29T03:25:46;6.00;;;3.72;;
74363;SDS011;62797;49.740;10.154;2023-03-29T03:28:13;7.25;;;3.72;;
74363;SDS011;62797;49.740;10.154;2023-03-29T03:30:40;8.00;;;3.00;;
74363;SDS011;62797;49.740;10.154;2023-03-29T03:33:05;5.23;;;3.00;;
74363;SDS011;62797;49.740;10.154;2023-03-29T03:35:50;7.10;;;3.92;;
74363;SDS011;62797;49.740;10.154;2023-03-29T03:38:16;7.10;;;3.60;;
74363;SDS011;62797;49.740;10.154;2023-03-29T03:40:52;5.32;;;3.13;;
74363;SDS011;62797;49.740;10.154;2023-03-29T03:43:20;6.97;;;2.88;;
74363;SDS011;62797;49.740;10.154;2023-03-29T03:45:47;6.30;;;3.42;;
74363;SDS011;62797;49.740;10.154;2023-03-29T03:48:19;10.55;;;2.97;;
74363;SDS011;62797;49.740;10.154;2023-03-29T03:50:54;5.05;;;2.70;;
74363;SDS011;62797;49.740;10.154;2023-03-29T03:53:23;14.40;;;4.63;;
74363;SDS011;62797;49.740;10.154;2023-03-29T03:56:09;5.80;;;2.97;;
74363;SDS011;62797;49.740;10.154;2023-03-29T03:58:53;4.45;;;2.80;;
74363;SDS011;62797;49.740;10.154;2023-03-29T04:03:56;4.47;;;2.67;;
74363;SDS011;62797;49.740;10.154;2023-03-29T04:06:23;8.52;;;3.75;;
74363;SDS011;62797;49.740;10.154;2023-03-29T04:09:08;8.68;;;2.92;;
74363;SDS011;62797;49.740;10.154;2023-03-29T04:11:38;5.85;;;3.38;;
74363;SDS011;62797;49.740;10.154;2023-03-29T04:14:05;6.43;;;3.08;;
74363;SDS011;62797;49.740;10.154;2023-03-29T04:16:51;8.95;;;4.25;;
74363;SDS011;62797;49.740;10.154;2023-03-29T04:19:36;7.90;;;2.92;;
74363;SDS011;62797;49.740;10.154;2023-03-29T04:22:02;6.10;;;3.03;;
74363;SDS011;62797;49.740;10.154;2023-03-29T04:24:27;6.38;;;3.13;;
74363;SDS011;62797;49.740;10.154;2023-03-29T04:29:41;5.95;;;3.10;;
74363;SDS011;62797;49.740;10.154;2023-03-29T04:32:17;6.35;;;2.88;;
74363;SDS011;62797;49.740;10.154;2023-03-29T04:34:54;6.82;;;2.75;;
74363;SDS011;62797;49.740;10.154;2023-03-29T04:37:19;5.47;;;3.23;;
74363;SDS011;62797;49.740;10.154;2023-03-29T04:39:48;4.40;;;3.10;;
74363;SDS011;62797;49.740;10.154;2023-03-29T04:42:14;5.00;;;3.33;;
74363;SDS011;62797;49.740;10.154;2023-03-29T04:47:08;9.05;;;3.40;;
74363;SDS011;62797;49.740;10.154;2023-03-29T04:49:40;4.30;;;2.75;;
74363;SDS011;62797;49.740;10.154;2023-03-29T04:52:12;6.95;;;3.45;;
74363;SDS011;62797;49.740;10.154;2023-03-29T04:57:23;5.03;;;2.97;;
74363;SDS011;62797;49.740;10.154;2023-03-29T05:00:04;5.13;;;2.90;;
74363;SDS011;62797;49.740;10.154;2023-03-29T05:03:01;8.05;;;3.30;;
74363;SDS011;62797;49.740;10.154;2023-03-29T05:05:30;4.43;;;3.22;;
74363;SDS011;62797;49.740;10.154;2023-03-29T05:07:59;8.30;;;3.60;;
74363;SDS011;62797;49.740;10.154;2023-03-29T05:10:32;5.47;;;3.45;;
74363;SDS011;62797;49.740;10.154;2023-03-29T05:12:58;6.90;;;3.65;;
74363;SDS011;62797;49.740;10.154;2023-03-29T05:15:24;5.47;;;3.03;;
74363;SDS011;62797;49.740;10.154;2023-03-29T05:17:50;6.88;;;2.95;;
74363;SDS011;62797;49.740;10.154;2023-03-29T05:20:16;6.63;;;3.10;;
74363;SDS011;62797;49.740;10.154;2023-03-29T05:22:44;7.93;;;3.30;;
74363;SDS011;62797;49.740;10.154;2023-03-29T05:25:19;4.53;;;2.63;;
74363;SDS011;62797;49.740;10.154;2023-03-29T05:27:45;9.60;;;3.92;;
74363;SDS011;62797;49.740;10.154;2023-03-29T05:30:12;10.77;;;4.18;;
74363;SDS011;62797;49.740;10.154;2023-03-29T05:33:00;6.90;;;3.50;;
74363;SDS011;62797;49.740;10.154;2023-03-29T05:35:28;6.80;;;3.20;;
74363;SDS011;62797;49.740;10.154;2023-03-29T05:37:55;7.72;;;4.88;;
74363;SDS011;62797;49.740;10.154;2023-03-29T05:40:21;6.45;;;4.38;;
74363;SDS011;62797;49.740;10.154;2023-03-29T05:43:09;5.68;;;3.08;;
74363;SDS011;62797;49.740;10.154;2023-03-29T05:45:35;5.55;;;3.60;;
74363;SDS011;62797;49.740;10.154;2023-03-29T05:48:00;5.40;;;2.92;;
74363;SDS011;62797;49.740;10.154;2023-03-29T05:50:28;10.45;;;3.45;;
74363;SDS011;62797;49.740;10.154;2023-03-29T05:52:54;7.82;;;3.88;;
74363;SDS011;62797;49.740;10.154;2023-03-29T05:55:21;13.43;;;4.03;;
74363;SDS011;62797;49.740;10.154;2023-03-29T05:57:47;8.18;;;4.47;;
74363;SDS011;62797;49.740;10.154;2023-03-29T06:00:14;6.35;;;3.75;;
74363;SDS011;62797;49.740;10.154;2023-03-29T06:02:57;5.28;;;3.78;;
74363;SDS011;62797;49.740;10.154;2023-03-29T06:05:23;9.75;;;3.70;;
74363;SDS011;62797;49.740;10.154;2023-03-29T06:07:55;5.32;;;3.42;;
74363;SDS011;62797;49.740;10.154;2023-03-29T06:10:48;5.97;;;3.65;;
74363;SDS011;62797;49.740;10.154;2023-03-29T06:13:29;8.77;;;4.32;;
74363;SDS011;62797;49.740;10.154;2023-03-29T06:15:57;6.22;;;3.53;;
74363;SDS011;62797;49.740;10.154;2023-03-29T06:18:23;8.15;;;3.97;;
74363;SDS011;62797;49.740;10.154;2023-03-29T06:20:50;7.43;;;3.08;;
74363;SDS011;62797;49.740;10.154;2023-03-29T06:23:18;5.95;;;3.53;;
74363;SDS011;62797;49.740;10.154;2023-03-29T06:25:47;6.50;;;3.63;;
74363;SDS011;62797;49.740;10.154;2023-03-29T06:28:16;7.57;;;4.07;;
74363;SDS011;62797;49.740;10.154;2023-03-29T06:30:43;7.43;;;3.90;;
74363;SDS011;62797;49.740;10.154;2023-03-29T06:33:10;11.80;;;4.35;;
74363;SDS011;62797;49.740;10.154;2023-03-29T06:35:59;13.15;;;4.40;;
74363;SDS011;62797;49.740;10.154;2023-03-29T06:38:27;8.18;;;4.25;;
74363;SDS011;62797;49.740;10.154;2023-03-29T06:41:06;7.03;;;3.90;;
74363;SDS011;62797;49.740;10.154;2023-03-29T06:44:08;8.38;;;3.90;;
74363;SDS011;62797;49.740;10.154;2023-03-29T06:46:42;6.40;;;3.85;;
74363;SDS011;62797;49.740;10.154;2023-03-29T06:49:08;8.13;;;4.30;;
74363;SDS011;62797;49.740;10.154;2023-03-29T06:51:49;9.50;;;4.18;;
74363;SDS011;62797;49.740;10.154;2023-03-29T06:54:15;11.82;;;5.15;;
74363;SDS011;62797;49.740;10.154;2023-03-29T06:56:50;7.68;;;4.20;;
74363;SDS011;62797;49.740;10.154;2023-03-29T06:59:18;11.15;;;4.82;;
74363;SDS011;62797;49.740;10.154;2023-03-29T07:01:53;7.88;;;4.25;;
74363;SDS011;62797;49.740;10.154;2023-03-29T07:04:27;9.13;;;3.50;;
74363;SDS011;62797;49.740;10.154;2023-03-29T07:07:06;7.93;;;4.05;;
74363;SDS011;62797;49.740;10.154;2023-03-29T07:09:36;9.00;;;4.50;;
74363;SDS011;62797;49.740;10.154;2023-03-29T07:12:22;5.47;;;3.92;;
74363;SDS011;62797;49.740;10.154;2023-03-29T07:17:14;9.57;;;4.13;;
74363;SDS011;62797;49.740;10.154;2023-03-29T07:19:41;8.73;;;4.18;;
74363;SDS011;62797;49.740;10.154;2023-03-29T07:22:29;7.70;;;3.92;;
74363;SDS011;62797;49.740;10.154;2023-03-29T07:24:59;7.47;;;4.28;;
74363;SDS011;62797;49.740;10.154;2023-03-29T07:27:25;7.10;;;4.47;;
74363;SDS011;62797;49.740;10.154;2023-03-29T07:29:51;6.47;;;3.83;;
74363;SDS011;62797;49.740;10.154;2023-03-29T07:32:17;6.13;;;4.07;;
74363;SDS011;62797;49.740;10.154;2023-03-29T07:34:43;6.20;;;3.60;;
74363;SDS011;62797;49.740;10.154;2023-03-29T07:37:18;7.90;;;3.88;;
74363;SDS011;62797;49.740;10.154;2023-03-29T07:39:45;8.27;;;3.97;;
74363;SDS011;62797;49.740;10.154;2023-03-29T07:42:37;6.65;;;3.92;;
74363;SDS011;62797;49.740;10.154;2023-03-29T07:45:05;6.93;;;3.85;;
74363;SDS011;62797;49.740;10.154;2023-03-29T07:47:39;11.85;;;3.58;;
74363;SDS011;62797;49.740;10.154;2023-03-29T07:50:06;5.70;;;3.50;;
74363;SDS011;62797;49.740;10.154;2023-03-29T07:52:33;4.10;;;3.17;;
74363;SDS011;62797;49.740;10.154;2023-03-29T07:55:01;4.15;;;2.88;;
74363;SDS011;62797;49.740;10.154;2023-03-29T07:57:56;6.57;;;3.25;;
74363;SDS011;62797;49.740;10.154;2023-03-29T08:00:23;7.70;;;3.67;;
74363;SDS011;62797;49.740;10.154;2023-03-29T08:03:12;8.55;;;3.72;;
74363;SDS011;62797;49.740;10.154;2023-03-29T08:05:38;7.93;;;3.20;;
74363;SDS011;62797;49.740;10.154;2023-03-29T08:08:08;5.65;;;3.22;;
74363;SDS011;62797;49.740;10.154;2023-03-29T08:10:47;12.20;;;3.13;;
74363;SDS011;62797;49.740;10.154;2023-03-29T08:13:41;13.77;;;3.28;;
74363;SDS011;62797;49.740;10.154;2023-03-29T08:16:25;4.60;;;3.15;;
74363;SDS011;62797;49.740;10.154;2023-03-29T08:18:58;7.53;;;3.83;;
74363;SDS011;62797;49.740;10.154;2023-03-29T08:21:37;9.07;;;3.30;;
74363;SDS011;62797;49.740;10.154;2023-03-29T08:24:04;4.18;;;2.97;;
74363;SDS011;62797;49.740;10.154;2023-03-29T08:26:40;6.95;;;3.63;;
74363;SDS011;62797;49.740;10.154;2023-03-29T08:29:06;7.50;;;3.30;;
74363;SDS011;62797;49.740;10.154;2023-03-29T08:33:59;3.85;;;3.13;;
74363;SDS011;62797;49.740;10.154;2023-03-29T08:36:43;10.98;;;3.78;;
74363;SDS011;62797;49.740;10.154;2023-03-29T08:39:23;6.63;;;3.95;;
74363;SDS011;62797;49.740;10.154;2023-03-29T08:50:17;6.50;;;3.53;;
74363;SDS011;62797;49.740;10.154;2023-03-29T08:52:51;9.00;;;3.55;;
74363;SDS011;62797;49.740;10.154;2023-03-29T08:55:46;5.97;;;3.08;;
74363;SDS011;62797;49.740;10.154;2023-03-29T08:58:24;8.70;;;3.47;;
74363;SDS011;62797;49.740;10.154;2023-03-29T09:00:54;6.20;;;3.33;;
74363;SDS011;62797;49.740;10.154;2023-03-29T09:03:23;8.18;;;3.65;;
74363;SDS011;62797;49.740;10.154;2023-03-29T09:05:58;5.35;;;3.20;;
74363;SDS011;62797;49.740;10.154;2023-03-29T09:08:36;7.78;;;3.80;;
74363;SDS011;62797;49.740;10.154;2023-03-29T09:16:29;12.32;;;3.35;;
74363;SDS011;62797;49.740;10.154;2023-03-29T09:19:14;4.10;;;2.67;;
74363;SDS011;62797;49.740;10.154;2023-03-29T09:21:57;9.00;;;3.53;;
74363;SDS011;62797;49.740;10.154;2023-03-29T09:35:50;8.60;;;3.15;;
74363;SDS011;62797;49.740;10.154;2023-03-29T09:38:18;7.43;;;3.67;;
74363;SDS011;62797;49.740;10.154;2023-03-29T09:40:47;5.43;;;2.90;;
74363;SDS011;62797;49.740;10.154;2023-03-29T09:43:24;5.03;;;2.67;;
74363;SDS011;62797;49.740;10.154;2023-03-29T09:45:55;6.13;;;2.95;;
74363;SDS011;62797;49.740;10.154;2023-03-29T09:48:25;8.57;;;3.58;;
74363;SDS011;62797;49.740;10.154;2023-03-29T09:50:55;5.15;;;3.00;;
74363;SDS011;62797;49.740;10.154;2023-03-29T09:53:22;6.68;;;3.45;;
74363;SDS011;62797;49.740;10.154;2023-03-29T09:55:59;4.60;;;3.17;;
74363;SDS011;62797;49.740;10.154;2023-03-29T09:58:36;4.00;;;2.73;;
74363;SDS011;62797;49.740;10.154;2023-03-29T10:01:03;6.65;;;3.10;;
74363;SDS011;62797;49.740;10.154;2023-03-29T10:03:33;5.65;;;3.38;;
74363;SDS011;62797;49.740;10.154;2023-03-29T10:06:08;5.70;;;4.05;;
74363;SDS011;62797;49.740;10.154;2023-03-29T10:08:38;5.70;;;3.58;;
74363;SDS011;62797;49.740;10.154;2023-03-29T10:11:19;7.97;;;2.92;;
74363;SDS011;62797;49.740;10.154;2023-03-29T10:13:58;5.60;;;2.85;;
74363;SDS011;62797;49.740;10.154;2023-03-29T10:16:28;5.50;;;3.10;;
74363;SDS011;62797;49.740;10.154;2023-03-29T10:18:57;11.38;;;2.65;;
74363;SDS011;62797;49.740;10.154;2023-03-29T10:21:30;7.63;;;3.42;;
74363;SDS011;62797;49.740;10.154;2023-03-29T10:23:56;10.80;;;3.07;;
74363;SDS011;62797;49.740;10.154;2023-03-29T10:28:53;8.85;;;3.20;;
74363;SDS011;62797;49.740;10.154;2023-03-29T10:31:21;5.43;;;3.17;;
74363;SDS011;62797;49.740;10.154;2023-03-29T10:33:52;9.45;;;3.10;;
74363;SDS011;62797;49.740;10.154;2023-03-29T10:36:20;6.03;;;3.17;;
74363;SDS011;62797;49.740;10.154;2023-03-29T10:38:48;8.90;;;3.15;;
74363;SDS011;62797;49.740;10.154;2023-03-29T10:41:15;7.70;;;2.65;;
74363;SDS011;62797;49.740;10.154;2023-03-29T10:43:42;7.50;;;3.15;;
74363;SDS011;62797;49.740;10.154;2023-03-29T10:49:04;12.43;;;3.15;;
74363;SDS011;62797;49.740;10.154;2023-03-29T10:51:43;4.65;;;2.40;;
74363;SDS011;62797;49.740;10.154;2023-03-29T10:54:12;5.25;;;2.40;;
74363;SDS011;62797;49.740;10.154;2023-03-29T10:56:56;13.88;;;2.75;;
74363;SDS011;62797;49.740;10.154;2023-03-29T10:59:28;11.10;;;3.83;;
74363;SDS011;62797;49.740;10.154;2023-03-29T11:04:44;5.28;;;2.65;;
74363;SDS011;62797;49.740;10.154;2023-03-29T11:15:39;4.70;;;2.88;;
74363;SDS011;62797;49.740;10.154;2023-03-29T11:29:37;2.67;;;2.08;;
74363;SDS011;62797;49.740;10.154;2023-03-29T11:32:13;4.43;;;2.72;;
74363;SDS011;62797;49.740;10.154;2023-03-29T11:37:37;5.05;;;2.00;;
74363;SDS011;62797;49.740;10.154;2023-03-29T11:42:51;3.67;;;2.05;;
74363;SDS011;62797;49.740;10.154;2023-03-29T11:45:28;5.63;;;2.38;;
74363;SDS011;62797;49.740;10.154;2023-03-29T11:48:04;4.88;;;2.30;;
74363;SDS011;62797;49.740;10.154;2023-03-29T11:50:53;6.65;;;1.75;;
74363;SDS011;62797;49.740;10.154;2023-03-29T11:53:45;3.58;;;2.00;;
74363;SDS011;62797;49.740;10.154;2023-03-29T11:56:41;5.18;;;2.13;;
74363;SDS011;62797;49.740;10.154;2023-03-29T11:59:21;5.10;;;2.55;;
74363;SDS011;62797;49.740;10.154;2023-03-29T12:05:15;7.60;;;2.20;;
74363;SDS011;62797;49.740;10.154;2023-03-29T12:10:33;5.82;;;2.55;;
74363;SDS011;62797;49.740;10.154;2023-03-29T12:13:06;8.60;;;2.58;;
74363;SDS011;62797;49.740;10.154;2023-03-29T12:15:41;6.50;;;2.30;;
74363;SDS011;62797;49.740;10.154;2023-03-29T12:18:26;6.03;;;2.42;;
74363;SDS011;62797;49.740;10.154;2023-03-29T12:21:07;10.23;;;2.20;;
74363;SDS011;62797;49.740;10.154;2023-03-29T12:23:37;4.90;;;3.15;;
74363;SDS011;62797;49.740;10.154;2023-03-29T12:32:00;7.28;;;2.10;;
74363;SDS011;62797;49.740;10.154;2023-03-29T12:35:02;9.05;;;2.55;;
74363;SDS011;62797;49.740;10.154;2023-03-29T12:43:42;5.82;;;2.55;;
74363;SDS011;62797;49.740;10.154;2023-03-29T12:46:32;13.43;;;2.55;;
74363;SDS011;62797;49.740;10.154;2023-03-29T12:49:03;9.35;;;2.20;;
74363;SDS011;62797;49.740;10.154;2023-03-29T12:51:49;8.60;;;2.47;;
74363;SDS011;62797;49.740;10.154;2023-03-29T12:54:17;8.13;;;2.88;;
74363;SDS011;62797;49.740;10.154;2023-03-29T12:59:26;5.13;;;2.00;;
74363;SDS011;62797;49.740;10.154;2023-03-29T13:02:17;5.22;;;2.42;;
74363;SDS011;62797;49.740;10.154;2023-03-29T13:04:57;5.50;;;2.53;;
74363;SDS011;62797;49.740;10.154;2023-03-29T13:12:27;4.57;;;2.08;;
74363;SDS011;62797;49.740;10.154;2023-03-29T13:15:24;5.00;;;2.28;;
74363;SDS011;62797;49.740;10.154;2023-03-29T13:21:19;6.38;;;2.22;;
74363;SDS011;62797;49.740;10.154;2023-03-29T13:29:21;6.65;;;2.47;;
74363;SDS011;62797;49.740;10.154;2023-03-29T13:32:25;5.95;;;2.28;;
74363;SDS011;62797;49.740;10.154;2023-03-29T13:37:59;9.55;;;3.00;;
74363;SDS011;62797;49.740;10.154;2023-03-29T13:43:19;11.77;;;3.00;;
74363;SDS011;62797;49.740;10.154;2023-03-29T13:48:26;3.97;;;2.78;;
74363;SDS011;62797;49.740;10.154;2023-03-29T13:51:19;6.05;;;2.78;;
74363;SDS011;62797;49.740;10.154;2023-03-29T13:53:52;4.50;;;2.35;;
74363;SDS011;62797;49.740;10.154;2023-03-29T13:56:23;5.97;;;2.50;;
74363;SDS011;62797;49.740;10.154;2023-03-29T13:58:53;8.00;;;3.10;;
74363;SDS011;62797;49.740;10.154;2023-03-29T14:04:03;16.50;;;3.70;;
74363;SDS011;62797;49.740;10.154;2023-03-29T14:06:33;6.28;;;3.42;;
74363;SDS011;62797;49.740;10.154;2023-03-29T14:09:02;6.00;;;3.08;;
74363;SDS011;62797;49.740;10.154;2023-03-29T14:11:31;13.23;;;3.83;;
74363;SDS011;62797;49.740;10.154;2023-03-29T14:13:58;5.30;;;2.88;;
74363;SDS011;62797;49.740;10.154;2023-03-29T14:16:26;7.03;;;3.15;;
74363;SDS011;62797;49.740;10.154;2023-03-29T14:18:58;4.80;;;2.95;;
74363;SDS011;62797;49.740;10.154;2023-03-29T14:21:27;5.35;;;2.53;;
74363;SDS011;62797;49.740;10.154;2023-03-29T14:23:54;7.00;;;3.35;;
74363;SDS011;62797;49.740;10.154;2023-03-29T14:26:28;4.75;;;2.17;;
74363;SDS011;62797;49.740;10.154;2023-03-29T14:28:58;5.68;;;2.85;;
74363;SDS011;62797;49.740;10.154;2023-03-29T14:31:29;7.47;;;3.13;;
74363;SDS011;62797;49.740;10.154;2023-03-29T14:33:57;11.45;;;3.20;;
74363;SDS011;62797;49.740;10.154;2023-03-29T14:36:25;9.27;;;3.22;;
74363;SDS011;62797;49.740;10.154;2023-03-29T14:38:54;5.18;;;2.97;;
74363;SDS011;62797;49.740;10.154;2023-03-29T14:41:27;9.13;;;3.05;;
74363;SDS011;62797;49.740;10.154;2023-03-29T14:43:54;5.28;;;2.70;;
74363;SDS011;62797;49.740;10.154;2023-03-29T14:46:21;9.73;;;3.55;;
74363;SDS011;62797;49.740;10.154;2023-03-29T14:48:47;6.53;;;3.20;;
74363;SDS011;62797;49.740;10.154;2023-03-29T14:51:13;6.88;;;2.88;;
74363;SDS011;62797;49.740;10.154;2023-03-29T14:53:39;7.18;;;3.00;;
74363;SDS011;62797;49.740;10.154;2023-03-29T14:56:08;5.30;;;2.50;;
74363;SDS011;62797;49.740;10.154;2023-03-29T14:58:37;6.05;;;3.47;;
74363;SDS011;62797;49.740;10.154;2023-03-29T15:01:15;13.77;;;3.60;;
74363;SDS011;62797;49.740;10.154;2023-03-29T15:04:30;6.45;;;2.75;;
74363;SDS011;62797;49.740;10.154;2023-03-29T15:06:30;7.90;;;3.88;;
74363;SDS011;62797;49.740;10.154;2023-03-29T15:08:56;6.85;;;3.60;;
74363;SDS011;62797;49.740;10.154;2023-03-29T15:11:26;8.60;;;4.07;;
74363;SDS011;62797;49.740;10.154;2023-03-29T15:14:14;8.55;;;2.80;;
74363;SDS011;62797;49.740;10.154;2023-03-29T15:19:17;7.27;;;4.07;;
74363;SDS011;62797;49.740;10.154;2023-03-29T15:21:46;5.57;;;3.05;;
74363;SDS011;62797;49.740;10.154;2023-03-29T15:24:18;7.35;;;3.25;;
74363;SDS011;62797;49.740;10.154;2023-03-29T15:27:01;9.27;;;3.83;;
74363;SDS011;62797;49.740;10.154;2023-03-29T15:29:47;7.38;;;3.38;;
74363;SDS011;62797;49.740;10.154;2023-03-29T15:32:20;3.67;;;2.77;;
74363;SDS011;62797;49.740;10.154;2023-03-29T15:34:56;6.07;;;3.63;;
74363;SDS011;62797;49.740;10.154;2023-03-29T15:37:23;7.63;;;2.60;;
74363;SDS011;62797;49.740;10.154;2023-03-29T15:39:50;9.27;;;5.40;;
74363;SDS011;62797;49.740;10.154;2023-03-29T15:42:16;6.65;;;2.88;;
74363;SDS011;62797;49.740;10.154;2023-03-29T15:44:41;5.40;;;2.40;;
74363;SDS011;62797;49.740;10.154;2023-03-29T15:47:10;4.75;;;2.90;;
74363;SDS011;62797;49.740;10.154;2023-03-29T15:49:37;10.23;;;3.70;;
74363;SDS011;62797;49.740;10.154;2023-03-29T15:52:03;7.97;;;3.55;;
74363;SDS011;62797;49.740;10.154;2023-03-29T15:54:29;8.95;;;3.97;;
74363;SDS011;62797;49.740;10.154;2023-03-29T15:59:27;5.47;;;2.60;;
74363;SDS011;62797;49.740;10.154;2023-03-29T16:01:54;6.65;;;3.15;;
74363;SDS011;62797;49.740;10.154;2023-03-29T16:04:21;7.50;;;2.78;;
74363;SDS011;62797;49.740;10.154;2023-03-29T16:06:49;4.65;;;2.83;;
74363;SDS011;62797;49.740;10.154;2023-03-29T16:09:22;6.35;;;2.55;;
74363;SDS011;62797;49.740;10.154;2023-03-29T16:11:49;3.42;;;2.33;;
74363;SDS011;62797;49.740;10.154;2023-03-29T16:16:44;5.78;;;3.25;;
74363;SDS011;62797;49.740;10.154;2023-03-29T16:19:09;7.50;;;3.40;;
74363;SDS011;62797;49.740;10.154;2023-03-29T16:21:35;8.37;;;3.90;;
74363;SDS011;62797;49.740;10.154;2023-03-29T16:24:01;5.35;;;3.20;;
74363;SDS011;62797;49.740;10.154;2023-03-29T16:26:28;6.30;;;3.53;;
74363;SDS011;62797;49.740;10.154;2023-03-29T16:28:54;4.50;;;2.67;;
74363;SDS011;62797;49.740;10.154;2023-03-29T16:31:20;4.78;;;2.65;;
74363;SDS011;62797;49.740;10.154;2023-03-29T16:33:48;6.40;;;2.88;;
74363;SDS011;62797;49.740;10.154;2023-03-29T16:36:14;5.53;;;2.50;;
74363;SDS011;62797;49.740;10.154;2023-03-29T16:38:40;7.70;;;2.33;;
74363;SDS011;62797;49.740;10.154;2023-03-29T16:41:06;7.13;;;3.22;;
74363;SDS011;62797;49.740;10.154;2023-03-29T16:43:31;6.30;;;2.47;;
74363;SDS011;62797;49.740;10.154;2023-03-29T16:45:57;5.27;;;2.67;;
74363;SDS011;62797;49.740;10.154;2023-03-29T16:48:22;6.47;;;4.40;;
74363;SDS011;62797;49.740;10.154;2023-03-29T16:50:48;5.27;;;4.00;;
74363;SDS011;62797;49.740;10.154;2023-03-29T16:53:14;7.68;;;4.00;;
74363;SDS011;62797;49.740;10.154;2023-03-29T16:55:41;5.25;;;3.05;;
74363;SDS011;62797;49.740;10.154;2023-03-29T16:58:07;6.35;;;3.20;;
74363;SDS011;62797;49.740;10.154;2023-03-29T17:00:32;4.47;;;3.35;;
74363;SDS011;62797;49.740;10.154;2023-03-29T17:02:59;9.20;;;3.55;;
74363;SDS011;62797;49.740;10.154;2023-03-29T17:05:27;9.98;;;3.60;;
74363;SDS011;62797;49.740;10.154;2023-03-29T17:07:56;10.20;;;3.63;;
74363;SDS011;62797;49.740;10.154;2023-03-29T17:10:21;8.10;;;3.25;;
74363;SDS011;62797;49.740;10.154;2023-03-29T17:12:47;7.95;;;3.63;;
74363;SDS011;62797;49.740;10.154;2023-03-29T17:15:13;5.75;;;3.38;;
74363;SDS011;62797;49.740;10.154;2023-03-29T17:17:39;7.80;;;2.30;;
74363;SDS011;62797;49.740;10.154;2023-03-29T17:20:06;10.48;;;3.15;;
74363;SDS011;62797;49.740;10.154;2023-03-29T17:22:34;4.90;;;3.45;;
74363;SDS011;62797;49.740;10.154;2023-03-29T17:25:00;12.20;;;2.83;;
74363;SDS011;62797;49.740;10.154;2023-03-29T17:27:28;5.60;;;2.40;;
74363;SDS011;62797;49.740;10.154;2023-03-29T17:29:54;10.77;;;3.85;;
74363;SDS011;62797;49.740;10.154;2023-03-29T17:32:19;6.53;;;2.20;;
74363;SDS011;62797;49.740;10.154;2023-03-29T17:34:45;5.50;;;3.53;;
74363;SDS011;62797;49.740;10.154;2023-03-29T17:37:12;5.68;;;2.60;;
74363;SDS011;62797;49.740;10.154;2023-03-29T17:39:38;5.43;;;2.42;;
74363;SDS011;62797;49.740;10.154;2023-03-29T17:42:06;3.97;;;2.90;;
74363;SDS011;62797;49.740;10.154;2023-03-29T17:44:31;9.27;;;2.65;;